Time,TemperatureF,DewpointF,PressureIn,WindDirection,WindDirectionDegrees,WindSpeedMPH,WindSpeedGustMPH,Humidity,HourlyPrecipIn,Conditions,Clouds,dailyrainin,SoftwareType,DateUTC
2013-03-21 00:02:00,52.7,27.8,29.62,SSW,202,1.1,1.1,38,0.00,,CLR,0.00,VWS V14.01,2013-03-21 05:02:00,
2013-03-21 00:08:00,52.9,28.0,29.62,SE,135,0.0,0.0,38,0.00,,CLR,0.00,VWS V14.01,2013-03-21 05:08:00,
2013-03-21 00:13:00,53.1,28.1,29.62,SSE,158,0.0,0.9,38,0.00,,CLR,0.00,VWS V14.01,2013-03-21 05:13:00,
2013-03-21 00:18:00,53.1,28.8,29.62,SSW,202,0.0,0.0,39,0.00,,CLR,0.00,VWS V14.01,2013-03-21 05:18:00,
2013-03-21 00:23:00,53.1,28.1,29.62,SSE,158,0.9,2.5,38,0.00,,CLR,0.00,VWS V14.01,2013-03-21 05:23:00,
2013-03-21 00:29:00,53.1,28.1,29.62,SSE,158,2.0,2.2,38,0.00,,CLR,0.00,VWS V14.01,2013-03-21 05:29:00,
2013-03-21 00:34:00,53.1,28.1,29.62,SSE,158,0.0,1.3,38,0.00,,CLR,0.00,VWS V14.01,2013-03-21 05:34:00,
2013-03-21 00:40:00,53.1,27.5,29.62,SSE,158,1.1,1.6,37,0.00,,CLR,0.00,VWS V14.01,2013-03-21 05:40:00,
2013-03-21 00:45:00,53.1,28.1,29.62,SSE,158,1.3,1.3,38,0.00,,CLR,0.00,VWS V14.01,2013-03-21 05:45:00,
2013-03-21 00:50:00,53.1,28.1,29.62,SSE,158,0.0,0.0,38,0.00,,CLR,0.00,VWS V14.01,2013-03-21 05:50:00,
2013-03-21 00:57:00,52.3,27.5,29.62,WNW,292,1.6,2.0,38,0.00,,CLR,0.00,VWS V14.01,2013-03-21 05:57:00,
2013-03-21 01:03:00,51.8,27.6,29.62,West,270,0.0,0.0,39,0.00,,CLR,0.00,VWS V14.01,2013-03-21 06:03:00,
2013-03-21 01:08:00,51.6,27.5,29.62,WSW,248,0.0,0.0,39,0.00,,CLR,0.00,VWS V14.01,2013-03-21 06:08:00,
2013-03-21 01:13:00,51.4,27.3,29.62,WSW,248,0.0,0.0,39,0.00,,CLR,0.00,VWS V14.01,2013-03-21 06:13:00,
2013-03-21 01:18:00,51.3,27.2,29.62,WSW,248,0.0,0.0,39,0.00,,CLR,0.00,VWS V14.01,2013-03-21 06:18:00,
2013-03-21 01:23:00,51.1,27.0,29.62,WSW,248,0.9,1.6,39,0.00,,CLR,0.00,VWS V14.01,2013-03-21 06:23:00,
2013-03-21 01:28:00,51.1,27.0,29.62,WSW,248,0.0,0.0,39,0.00,,CLR,0.00,VWS V14.01,2013-03-21 06:28:00,
2013-03-21 01:34:00,50.9,26.8,29.62,WSW,248,0.0,0.0,39,0.00,,CLR,0.00,VWS V14.01,2013-03-21 06:34:00,
2013-03-21 01:40:00,50.7,26.7,29.62,WSW,248,0.0,0.0,39,0.00,,CLR,0.00,VWS V14.01,2013-03-21 06:40:00,
2013-03-21 01:45:00,50.7,26.7,29.62,WSW,248,0.0,0.0,39,0.00,,CLR,0.00,VWS V14.01,2013-03-21 06:45:00,
2013-03-21 01:50:00,50.7,26.7,29.62,WSW,248,0.0,0.0,39,0.00,,CLR,0.00,VWS V14.01,2013-03-21 06:50:00,
2013-03-21 01:55:00,50.5,26.5,29.62,WSW,248,0.0,0.0,39,0.00,,CLR,0.00,VWS V14.01,2013-03-21 06:55:00,
2013-03-21 02:00:00,50.2,28.0,29.62,WSW,248,0.0,0.0,42,0.00,,CLR,0.00,VWS V14.01,2013-03-21 07:00:00,
2013-03-21 02:06:00,50.0,27.8,29.62,WSW,248,0.0,0.0,42,0.00,,CLR,0.00,VWS V14.01,2013-03-21 07:06:00,
2013-03-21 02:12:00,49.8,28.8,29.62,WSW,248,0.0,0.0,44,0.00,,CLR,0.00,VWS V14.01,2013-03-21 07:12:00,
2013-03-21 02:17:00,49.8,29.4,29.65,WSW,248,0.0,0.0,45,0.00,,CLR,0.00,VWS V14.01,2013-03-21 07:17:00,
2013-03-21 02:22:00,49.8,28.8,29.65,WSW,248,0.0,0.0,44,0.00,,CLR,0.00,VWS V14.01,2013-03-21 07:22:00,
2013-03-21 02:27:00,50.0,29.0,29.65,WSW,248,0.9,1.3,44,0.00,,CLR,0.00,VWS V14.01,2013-03-21 07:27:00,
2013-03-21 02:33:00,50.4,28.7,29.62,WSW,248,2.0,2.0,43,0.00,,CLR,0.00,VWS V14.01,2013-03-21 07:33:00,
2013-03-21 02:38:00,50.4,28.7,29.62,WSW,248,2.0,2.0,43,0.00,,CLR,0.00,VWS V14.01,2013-03-21 07:38:00,
2013-03-21 02:43:00,50.5,28.9,29.62,WSW,248,1.6,1.6,43,0.00,,CLR,0.00,VWS V14.01,2013-03-21 07:43:00,
2013-03-21 02:49:00,50.5,28.9,29.62,WSW,248,2.2,2.2,43,0.00,,CLR,0.00,VWS V14.01,2013-03-21 07:49:00,
2013-03-21 02:54:00,50.5,28.9,29.62,WSW,248,1.3,2.2,43,0.00,,CLR,0.00,VWS V14.01,2013-03-21 07:54:00,
2013-03-21 02:59:00,50.7,29.1,29.62,WSW,248,1.3,1.6,43,0.00,,CLR,0.00,VWS V14.01,2013-03-21 07:59:00,
2013-03-21 03:05:00,50.9,29.2,29.62,WSW,248,2.0,2.2,43,0.00,,CLR,0.00,VWS V14.01,2013-03-21 08:05:00,
2013-03-21 03:10:00,50.7,29.1,29.62,WSW,248,1.3,2.0,43,0.00,,CLR,0.00,VWS V14.01,2013-03-21 08:10:00,
2013-03-21 03:15:00,50.5,28.9,29.62,WSW,248,0.0,0.0,43,0.00,,CLR,0.00,VWS V14.01,2013-03-21 08:15:00,
2013-03-21 03:21:00,50.5,28.9,29.59,WSW,248,1.1,1.6,43,0.00,,CLR,0.00,VWS V14.01,2013-03-21 08:21:00,
2013-03-21 03:26:00,50.5,28.9,29.59,WSW,248,0.0,0.0,43,0.00,,CLR,0.00,VWS V14.01,2013-03-21 08:26:00,
2013-03-21 03:32:00,50.5,28.9,29.62,SW,225,0.0,0.0,43,0.00,,CLR,0.00,VWS V14.01,2013-03-21 08:32:00,
2013-03-21 03:37:00,50.5,28.9,29.62,SSE,158,1.3,1.3,43,0.00,,CLR,0.00,VWS V14.01,2013-03-21 08:37:00,
2013-03-21 03:42:00,50.4,28.7,29.62,South,180,1.3,1.6,43,0.00,,CLR,0.00,VWS V14.01,2013-03-21 08:42:00,
2013-03-21 03:47:00,50.2,28.6,29.59,South,180,0.0,0.0,43,0.00,,CLR,0.00,VWS V14.01,2013-03-21 08:47:00,
2013-03-21 03:52:00,50.2,28.6,29.59,SSW,202,0.0,1.1,43,0.00,,CLR,0.00,VWS V14.01,2013-03-21 08:52:00,
2013-03-21 03:57:00,50.2,28.6,29.59,South,180,0.0,0.0,43,0.00,,CLR,0.00,VWS V14.01,2013-03-21 08:57:00,
2013-03-21 04:02:00,50.2,28.6,29.59,WSW,248,2.5,2.5,43,0.00,,,0.00,VWS V14.01,2013-03-21 09:02:00,
2013-03-21 04:07:00,50.2,29.1,29.59,WSW,248,0.0,2.5,44,0.00,,,0.00,VWS V14.01,2013-03-21 09:07:00,
2013-03-21 04:12:00,50.2,29.1,29.59,SSW,202,0.0,0.0,44,0.00,,,0.00,VWS V14.01,2013-03-21 09:12:00,
2013-03-21 04:18:00,50.0,29.0,29.59,South,180,0.0,0.0,44,0.00,,,0.00,VWS V14.01,2013-03-21 09:18:00,
2013-03-21 04:23:00,49.8,28.8,29.59,WSW,248,0.0,1.3,44,0.00,,,0.00,VWS V14.01,2013-03-21 09:23:00,
2013-03-21 04:29:00,49.5,28.5,29.59,SW,225,0.9,1.3,44,0.00,,,0.00,VWS V14.01,2013-03-21 09:29:00,
2013-03-21 04:34:00,49.3,28.3,29.59,WSW,248,1.6,1.6,44,0.00,,,0.00,VWS V14.01,2013-03-21 09:34:00,
2013-03-21 04:40:00,48.9,28.5,29.59,SW,225,0.9,1.6,45,0.00,,,0.00,VWS V14.01,2013-03-21 09:40:00,
2013-03-21 04:46:00,48.9,28.5,29.59,SSW,202,0.9,1.6,45,0.00,,,0.00,VWS V14.01,2013-03-21 09:46:00,
2013-03-21 04:51:00,48.7,28.9,29.59,WSW,248,2.0,2.0,46,0.00,,,0.00,VWS V14.01,2013-03-21 09:51:00,
2013-03-21 04:57:00,48.4,28.6,29.59,WSW,248,2.0,2.5,46,0.00,,,0.00,VWS V14.01,2013-03-21 09:57:00,
2013-03-21 05:03:00,48.4,29.1,29.59,WSW,248,2.5,2.5,47,0.00,,,0.00,VWS V14.01,2013-03-21 10:03:00,
2013-03-21 05:08:00,48.0,29.3,29.59,WSW,248,1.1,1.1,48,0.00,,,0.00,VWS V14.01,2013-03-21 10:08:00,
2013-03-21 05:13:00,47.8,29.1,29.59,SSW,202,0.0,0.9,48,0.00,,,0.00,VWS V14.01,2013-03-21 10:13:00,
2013-03-21 05:18:00,47.8,28.6,29.56,SSW,202,0.0,0.0,47,0.00,,,0.00,VWS V14.01,2013-03-21 10:18:00,
2013-03-21 05:23:00,47.8,28.6,29.56,SSW,202,1.1,1.3,47,0.00,,,0.00,VWS V14.01,2013-03-21 10:23:00,
2013-03-21 05:28:00,47.8,29.1,29.56,SSW,202,1.6,1.6,48,0.00,,,0.00,VWS V14.01,2013-03-21 10:28:00,
2013-03-21 05:33:00,48.0,29.3,29.56,WNW,292,2.5,2.5,48,0.00,,,0.00,VWS V14.01,2013-03-21 10:33:00,
2013-03-21 05:39:00,48.2,30.0,29.56,WSW,248,2.7,2.7,49,0.00,,,0.00,VWS V14.01,2013-03-21 10:39:00,
2013-03-21 05:44:00,48.2,30.0,29.56,WSW,248,2.2,2.5,49,0.00,,,0.00,VWS V14.01,2013-03-21 10:44:00,
2013-03-21 05:49:00,48.4,30.6,29.56,WSW,248,2.9,2.9,50,0.00,,,0.00,VWS V14.01,2013-03-21 10:49:00,
2013-03-21 05:54:00,48.4,30.6,29.56,WSW,248,2.5,2.7,50,0.00,,,0.00,VWS V14.01,2013-03-21 10:54:00,
2013-03-21 06:00:00,48.2,30.5,29.56,WSW,248,2.0,2.5,50,0.00,,,0.00,VWS V14.01,2013-03-21 11:00:00,
2013-03-21 06:06:00,48.2,30.5,29.56,WSW,248,1.6,2.5,50,0.00,,,0.00,VWS V14.01,2013-03-21 11:06:00,
2013-03-21 06:11:00,48.0,30.8,29.56,SW,225,2.2,2.2,51,0.00,,,0.00,VWS V14.01,2013-03-21 11:11:00,
2013-03-21 06:17:00,48.0,30.8,29.56,SSW,202,1.6,1.6,51,0.00,,,0.00,VWS V14.01,2013-03-21 11:17:00,
2013-03-21 06:22:00,48.2,30.9,29.56,WSW,248,1.3,1.3,51,0.00,,,0.00,VWS V14.01,2013-03-21 11:22:00,
2013-03-21 06:27:00,48.4,31.6,29.56,WSW,248,1.6,2.0,52,0.00,,,0.00,VWS V14.01,2013-03-21 11:27:00,
2013-03-21 06:33:00,48.4,31.6,29.56,WSW,248,1.3,2.2,52,0.00,,,0.00,VWS V14.01,2013-03-21 11:33:00,
2013-03-21 06:38:00,48.4,31.6,29.56,WSW,248,2.0,2.0,52,0.00,,,0.00,VWS V14.01,2013-03-21 11:38:00,
2013-03-21 06:43:00,48.4,31.6,29.56,SW,225,1.1,2.7,52,0.00,,,0.00,VWS V14.01,2013-03-21 11:43:00,
2013-03-21 06:49:00,48.4,31.6,29.56,WSW,248,0.0,1.3,52,0.00,,,0.00,VWS V14.01,2013-03-21 11:49:00,
2013-03-21 06:54:00,48.4,31.6,29.56,SSW,202,1.6,2.2,52,0.00,,,0.00,VWS V14.01,2013-03-21 11:54:00,
2013-03-21 07:00:00,48.4,31.6,29.56,SSW,202,0.0,0.0,52,0.00,,,0.00,VWS V14.01,2013-03-21 12:00:00,
2013-03-21 07:05:00,48.4,31.6,29.59,SSW,202,1.1,1.1,52,0.00,,,0.00,VWS V14.01,2013-03-21 12:05:00,
2013-03-21 07:10:00,48.2,31.4,29.59,SSW,202,1.1,1.3,52,0.00,,,0.00,VWS V14.01,2013-03-21 12:10:00,
2013-03-21 07:15:00,48.2,31.9,29.59,SSW,202,0.0,0.0,53,0.00,,,0.00,VWS V14.01,2013-03-21 12:15:00,
2013-03-21 07:20:00,48.2,31.9,29.59,SSW,202,1.3,1.6,53,0.00,,,0.00,VWS V14.01,2013-03-21 12:20:00,
2013-03-21 07:26:00,48.4,32.5,29.59,WSW,248,2.7,2.7,54,0.00,,,0.00,VWS V14.01,2013-03-21 12:26:00,
2013-03-21 07:31:00,48.4,32.5,29.59,South,180,0.9,1.6,54,0.00,,,0.00,VWS V14.01,2013-03-21 12:31:00,
2013-03-21 07:37:00,48.7,32.8,29.59,SSW,202,1.1,2.0,54,0.00,,,0.00,VWS V14.01,2013-03-21 12:37:00,
2013-03-21 07:43:00,48.7,32.4,29.59,South,180,0.0,0.0,53,0.00,,,0.00,VWS V14.01,2013-03-21 12:43:00,
2013-03-21 07:48:00,48.7,32.8,29.59,SSW,202,1.3,1.3,54,0.00,,,0.00,VWS V14.01,2013-03-21 12:48:00,
2013-03-21 07:53:00,48.6,32.7,29.59,South,180,0.0,0.9,54,0.00,,,0.00,VWS V14.01,2013-03-21 12:53:00,
2013-03-21 07:59:00,48.7,32.8,29.59,WSW,248,1.1,1.1,54,0.00,,,0.00,VWS V14.01,2013-03-21 12:59:00,
2013-03-21 08:05:00,48.7,32.8,29.59,SW,225,0.9,1.3,54,0.00,,,0.00,VWS V14.01,2013-03-21 13:05:00,
2013-03-21 08:10:00,48.9,33.5,29.59,SSW,202,0.0,1.3,55,0.00,,,0.00,VWS V14.01,2013-03-21 13:10:00,
2013-03-21 08:15:00,49.1,33.2,29.59,SSW,202,0.0,1.6,54,0.00,,,0.00,VWS V14.01,2013-03-21 13:15:00,
2013-03-21 08:20:00,49.3,33.8,29.59,SSW,202,2.2,2.2,55,0.00,,,0.00,VWS V14.01,2013-03-21 13:20:00,
2013-03-21 08:25:00,49.5,34.0,29.59,SSW,202,1.3,2.2,55,0.00,,,0.00,VWS V14.01,2013-03-21 13:25:00,
2013-03-21 08:30:00,49.6,34.2,29.59,ENE,68,1.3,2.0,55,0.00,,,0.00,VWS V14.01,2013-03-21 13:30:00,
2013-03-21 08:35:00,49.6,34.2,29.59,South,180,0.0,2.2,55,0.00,,,0.00,VWS V14.01,2013-03-21 13:35:00,
2013-03-21 08:41:00,49.6,34.6,29.59,WSW,248,3.4,3.4,56,0.00,,,0.00,VWS V14.01,2013-03-21 13:41:00,
2013-03-21 08:46:00,49.6,34.6,29.59,SSW,202,2.5,3.1,56,0.00,,,0.00,VWS V14.01,2013-03-21 13:46:00,
2013-03-21 08:52:00,49.8,34.8,29.59,SSW,202,1.3,2.0,56,0.00,,,0.00,VWS V14.01,2013-03-21 13:52:00,
2013-03-21 08:58:00,50.0,34.5,29.59,SSW,202,1.1,2.0,55,0.00,,,0.00,VWS V14.01,2013-03-21 13:58:00,
2013-03-21 09:03:00,50.4,34.8,29.59,SSW,202,2.5,3.4,55,0.00,,,0.00,VWS V14.01,2013-03-21 14:03:00,
2013-03-21 09:08:00,50.5,35.4,29.59,WSW,248,2.5,2.5,56,0.00,,,0.00,VWS V14.01,2013-03-21 14:08:00,
2013-03-21 09:14:00,50.9,35.3,29.59,WSW,248,0.9,1.6,55,0.00,,,0.00,VWS V14.01,2013-03-21 14:14:00,
2013-03-21 09:19:00,51.1,35.5,29.59,WSW,248,3.6,3.6,55,0.00,,,0.00,VWS V14.01,2013-03-21 14:19:00,
2013-03-21 09:24:00,51.3,35.7,29.59,WSW,248,2.7,2.7,55,0.00,,,0.00,VWS V14.01,2013-03-21 14:24:00,
2013-03-21 09:30:00,51.8,35.7,29.59,WSW,248,1.6,2.0,54,0.00,,,0.00,VWS V14.01,2013-03-21 14:30:00,
2013-03-21 09:35:00,52.2,36.0,29.59,WSW,248,2.5,2.7,54,0.00,,,0.00,VWS V14.01,2013-03-21 14:35:00,
2013-03-21 09:40:00,52.3,35.7,29.59,WSW,248,2.7,2.7,53,0.00,,,0.00,VWS V14.01,2013-03-21 14:40:00,
2013-03-21 09:46:00,52.9,35.8,29.59,SW,225,3.6,3.6,52,0.00,,,0.00,VWS V14.01,2013-03-21 14:46:00,
2013-03-21 09:51:00,53.1,35.4,29.59,SSW,202,2.0,2.5,51,0.00,,,0.00,VWS V14.01,2013-03-21 14:51:00,
2013-03-21 09:57:00,53.1,35.4,29.59,SSW,202,2.2,3.4,51,0.00,,,0.00,VWS V14.01,2013-03-21 14:57:00,
2013-03-21 10:03:00,53.4,36.2,29.59,WSW,248,0.9,2.7,52,0.00,,,0.00,VWS V14.01,2013-03-21 15:03:00,
2013-03-21 10:08:00,53.8,35.6,29.59,WSW,248,2.0,2.2,50,0.00,,,0.00,VWS V14.01,2013-03-21 15:08:00,
2013-03-21 10:14:00,54.0,35.8,29.59,WSW,248,2.7,3.1,50,0.00,,,0.00,VWS V14.01,2013-03-21 15:14:00,
2013-03-21 10:19:00,54.0,35.8,29.59,SSW,202,1.6,2.5,50,0.00,,,0.00,VWS V14.01,2013-03-21 15:19:00,
2013-03-21 10:24:00,54.1,35.4,29.59,WSW,248,1.3,2.0,49,0.00,,,0.00,VWS V14.01,2013-03-21 15:24:00,
2013-03-21 10:30:00,54.5,35.8,29.59,WSW,248,2.7,2.9,49,0.00,,,0.00,VWS V14.01,2013-03-21 15:30:00,
2013-03-21 10:36:00,54.5,35.8,29.56,WSW,248,1.3,2.2,49,0.00,,,0.00,VWS V14.01,2013-03-21 15:36:00,
2013-03-21 10:41:00,54.7,35.4,29.56,WSW,248,1.6,2.0,48,0.00,,,0.00,VWS V14.01,2013-03-21 15:41:00,
2013-03-21 10:47:00,55.4,36.1,29.56,WSW,248,2.9,2.9,48,0.00,,,0.00,VWS V14.01,2013-03-21 15:47:00,
2013-03-21 10:52:00,55.9,36.0,29.56,WSW,248,1.6,2.5,47,0.00,,,0.00,VWS V14.01,2013-03-21 15:52:00,
2013-03-21 10:58:00,55.9,35.5,29.56,WSW,248,2.5,4.0,46,0.00,,,0.00,VWS V14.01,2013-03-21 15:58:00,
2013-03-21 11:03:00,56.3,35.2,29.56,SSW,202,2.7,4.9,45,0.00,,,0.00,VWS V14.01,2013-03-21 16:03:00,
2013-03-21 11:09:00,57.6,36.4,29.56,WSW,248,2.5,2.5,45,0.00,,,0.00,VWS V14.01,2013-03-21 16:09:00,
2013-03-21 11:14:00,57.9,36.7,29.56,WSW,248,3.6,3.6,45,0.00,,,0.00,VWS V14.01,2013-03-21 16:14:00,
2013-03-21 11:19:00,58.6,37.4,29.56,SW,225,4.0,4.0,45,0.00,,,0.00,VWS V14.01,2013-03-21 16:19:00,
2013-03-21 11:24:00,59.5,37.0,29.56,WSW,248,4.7,4.7,43,0.00,,,0.00,VWS V14.01,2013-03-21 16:24:00,
2013-03-21 11:29:00,61.5,38.2,29.56,WSW,248,2.5,2.9,42,0.00,,,0.00,VWS V14.01,2013-03-21 16:29:00,
2013-03-21 11:34:00,62.2,38.3,29.53,SW,225,3.1,3.8,41,0.00,,,0.00,VWS V14.01,2013-03-21 16:34:00,
2013-03-21 11:40:00,63.7,38.3,29.53,WSW,248,4.0,4.9,39,0.00,,,0.00,VWS V14.01,2013-03-21 16:40:00,
2013-03-21 11:45:00,63.3,37.3,29.53,WSW,248,4.0,4.3,38,0.00,,,0.00,VWS V14.01,2013-03-21 16:45:00,
2013-03-21 11:50:00,63.7,37.0,29.50,WSW,248,4.3,6.3,37,0.00,,,0.00,VWS V14.01,2013-03-21 16:50:00,
2013-03-21 11:55:00,64.9,38.1,29.50,NNW,338,5.4,5.4,37,0.00,,,0.00,VWS V14.01,2013-03-21 16:55:00,
2013-03-21 12:00:00,65.7,38.0,29.50,WSW,248,4.5,6.3,36,0.00,,CLR,0.00,VWS V14.01,2013-03-21 17:00:00,
2013-03-21 12:05:00,67.1,39.3,29.50,WSW,248,5.4,5.4,36,0.00,,CLR,0.00,VWS V14.01,2013-03-21 17:05:00,
2013-03-21 12:10:00,66.7,38.2,29.50,South,180,3.6,4.3,35,0.00,,CLR,0.00,VWS V14.01,2013-03-21 17:10:00,
2013-03-21 12:15:00,66.7,39.0,29.50,SSE,158,3.4,4.5,36,0.00,,CLR,0.00,VWS V14.01,2013-03-21 17:15:00,
2013-03-21 12:20:00,68.0,39.3,29.47,SW,225,2.9,5.4,35,0.00,,CLR,0.00,VWS V14.01,2013-03-21 17:20:00,
2013-03-21 12:25:00,68.7,39.2,29.47,SW,225,4.9,4.9,34,0.00,,CLR,0.00,VWS V14.01,2013-03-21 17:25:00,
2013-03-21 12:30:00,69.3,39.7,29.47,WSW,248,5.8,5.8,34,0.00,,CLR,0.00,VWS V14.01,2013-03-21 17:30:00,
2013-03-21 12:36:00,69.8,39.4,29.44,WSW,248,3.8,8.1,33,0.00,,CLR,0.00,VWS V14.01,2013-03-21 17:36:00,
2013-03-21 12:41:00,69.8,39.4,29.44,WSW,248,4.0,4.9,33,0.00,,CLR,0.00,VWS V14.01,2013-03-21 17:41:00,
2013-03-21 12:46:00,69.6,39.3,29.44,WSW,248,6.3,6.3,33,0.00,,CLR,0.00,VWS V14.01,2013-03-21 17:46:00,
2013-03-21 12:52:00,67.8,38.5,29.44,WSW,248,3.8,6.3,34,0.00,,CLR,0.00,VWS V14.01,2013-03-21 17:52:00,
2013-03-21 12:58:00,67.8,38.5,29.44,WNW,292,5.4,5.6,34,0.00,,CLR,0.00,VWS V14.01,2013-03-21 17:58:00,
2013-03-21 13:04:00,68.7,39.2,29.41,WSW,248,4.9,4.9,34,0.00,,CLR,0.00,VWS V14.01,2013-03-21 18:04:00,
2013-03-21 13:09:00,70.7,41.0,29.41,WNW,292,6.5,6.5,34,0.00,,CLR,0.00,VWS V14.01,2013-03-21 18:09:00,
2013-03-21 13:15:00,72.1,41.5,29.41,WNW,292,5.6,8.5,33,0.00,,CLR,0.00,VWS V14.01,2013-03-21 18:15:00,
2013-03-21 13:20:00,72.3,41.6,29.38,WSW,248,5.6,7.4,33,0.00,,CLR,0.00,VWS V14.01,2013-03-21 18:20:00,
2013-03-21 13:25:00,71.8,41.2,29.38,WNW,292,7.6,9.8,33,0.00,,CLR,0.00,VWS V14.01,2013-03-21 18:25:00,
2013-03-21 13:30:00,70.5,40.1,29.38,WSW,248,8.1,13.6,33,0.00,,CLR,0.00,VWS V14.01,2013-03-21 18:30:00,
2013-03-21 13:35:00,69.4,39.9,29.38,WSW,248,7.6,7.6,34,0.00,,CLR,0.00,VWS V14.01,2013-03-21 18:35:00,
2013-03-21 13:40:00,68.5,39.1,29.38,WNW,292,8.5,13.2,34,0.00,,CLR,0.00,VWS V14.01,2013-03-21 18:40:00,
2013-03-21 13:46:00,67.5,39.6,29.38,WNW,292,11.0,11.0,36,0.00,,CLR,0.00,VWS V14.01,2013-03-21 18:46:00,
2013-03-21 13:51:00,67.1,40.0,29.35,West,270,8.5,10.3,37,0.00,,CLR,0.00,VWS V14.01,2013-03-21 18:51:00,
2013-03-21 13:57:00,66.6,40.9,29.35,West,270,8.1,12.8,39,0.00,,CLR,0.00,VWS V14.01,2013-03-21 18:57:00,
2013-03-21 14:02:00,66.6,42.2,29.35,WNW,292,13.4,13.4,41,0.00,,CLR,0.00,VWS V14.01,2013-03-21 19:02:00,
2013-03-21 14:07:00,67.8,43.9,29.35,WNW,292,7.6,7.6,42,0.00,,CLR,0.00,VWS V14.01,2013-03-21 19:07:00,
2013-03-21 14:13:00,70.7,44.5,29.35,WSW,248,6.0,9.6,39,0.00,,CLR,0.00,VWS V14.01,2013-03-21 19:13:00,
2013-03-21 14:18:00,70.3,44.2,29.32,WSW,248,7.8,10.5,39,0.00,,CLR,0.00,VWS V14.01,2013-03-21 19:18:00,
2013-03-21 14:23:00,71.4,45.2,29.32,WSW,248,7.2,7.2,39,0.00,,CLR,0.00,VWS V14.01,2013-03-21 19:23:00,
2013-03-21 14:29:00,71.2,45.0,29.32,WNW,292,5.4,8.5,39,0.00,,CLR,0.00,VWS V14.01,2013-03-21 19:29:00,
2013-03-21 14:35:00,71.8,44.8,29.32,WSW,248,7.4,11.0,38,0.00,,CLR,0.00,VWS V14.01,2013-03-21 19:35:00,
2013-03-21 14:41:00,70.9,44.0,29.32,WSW,248,8.5,8.5,38,0.00,,CLR,0.00,VWS V14.01,2013-03-21 19:41:00,
2013-03-21 14:46:00,71.4,45.2,29.32,WNW,292,10.3,10.3,39,0.00,,CLR,0.00,VWS V14.01,2013-03-21 19:46:00,
2013-03-21 14:52:00,70.9,44.7,29.29,West,270,6.0,7.4,39,0.00,,CLR,0.00,VWS V14.01,2013-03-21 19:52:00,
2013-03-21 14:57:00,70.5,44.4,29.29,WSW,248,5.8,6.5,39,0.00,,CLR,0.00,VWS V14.01,2013-03-21 19:57:00,
2013-03-21 15:03:00,70.3,44.2,29.29,WNW,292,5.4,6.3,39,0.00,,CLR,0.00,VWS V14.01,2013-03-21 20:03:00,
2013-03-21 15:09:00,70.2,44.1,29.29,WNW,292,4.3,8.5,39,0.00,,CLR,0.00,VWS V14.01,2013-03-21 20:09:00,
2013-03-21 15:14:00,69.8,43.8,29.29,WSW,248,9.6,9.6,39,0.00,,CLR,0.00,VWS V14.01,2013-03-21 20:14:00,
2013-03-21 15:20:00,69.6,44.2,29.26,WNW,292,8.1,8.5,40,0.00,,CLR,0.00,VWS V14.01,2013-03-21 20:20:00,
2013-03-21 15:25:00,69.6,44.2,29.26,WNW,292,6.0,8.7,40,0.00,,CLR,0.00,VWS V14.01,2013-03-21 20:25:00,
2013-03-21 15:31:00,69.4,44.1,29.26,West,270,8.7,12.8,40,0.00,,CLR,0.00,VWS V14.01,2013-03-21 20:31:00,
2013-03-21 15:37:00,69.4,44.1,29.23,West,270,5.6,7.6,40,0.00,,CLR,0.00,VWS V14.01,2013-03-21 20:37:00,
2013-03-21 15:42:00,69.4,44.1,29.23,WSW,248,8.5,8.5,40,0.00,,CLR,0.00,VWS V14.01,2013-03-21 20:42:00,
2013-03-21 15:48:00,69.6,44.2,29.26,WSW,248,5.4,7.4,40,0.00,,CLR,0.00,VWS V14.01,2013-03-21 20:48:00,
2013-03-21 15:54:00,69.4,43.4,29.26,WSW,248,6.3,8.1,39,0.00,,CLR,0.00,VWS V14.01,2013-03-21 20:54:00,
2013-03-21 16:00:00,69.3,43.3,29.26,WNW,292,8.7,8.7,39,0.00,,OVC070,0.00,VWS V14.01,2013-03-21 21:00:00,
2013-03-21 16:06:00,69.3,43.9,29.26,WSW,248,5.4,5.6,40,0.00,,OVC070,0.00,VWS V14.01,2013-03-21 21:06:00,
2013-03-21 16:11:00,69.1,43.1,29.26,WNW,292,7.2,7.6,39,0.00,,OVC070,0.00,VWS V14.01,2013-03-21 21:11:00,
2013-03-21 16:17:00,69.1,43.1,29.26,WSW,248,5.8,6.5,39,0.00,,OVC070,0.00,VWS V14.01,2013-03-21 21:17:00,
2013-03-21 16:23:00,68.9,43.6,29.26,WNW,292,6.3,7.6,40,0.00,,OVC070,0.00,VWS V14.01,2013-03-21 21:23:00,
2013-03-21 16:28:00,68.7,43.5,29.26,WSW,248,9.6,9.6,40,0.00,,OVC070,0.00,VWS V14.01,2013-03-21 21:28:00,
2013-03-21 16:34:00,68.7,44.1,29.23,WSW,248,4.0,4.0,41,0.00,,OVC070,0.00,VWS V14.01,2013-03-21 21:34:00,
2013-03-21 16:39:00,68.5,43.9,29.23,WSW,248,3.6,4.3,41,0.00,,OVC070,0.00,VWS V14.01,2013-03-21 21:39:00,
2013-03-21 16:45:00,68.4,43.8,29.23,WSW,248,3.8,6.3,41,0.00,,OVC070,0.00,VWS V14.01,2013-03-21 21:45:00,
2013-03-21 16:50:00,68.2,44.2,29.26,WSW,248,6.3,6.3,42,0.00,,OVC070,0.00,VWS V14.01,2013-03-21 21:50:00,
2013-03-21 16:56:00,68.0,44.7,29.26,West,270,3.6,6.3,43,0.00,,OVC070,0.00,VWS V14.01,2013-03-21 21:56:00,
2013-03-21 17:02:00,67.8,44.5,29.23,WSW,248,5.8,8.5,43,0.00,,OVC070,0.00,VWS V14.01,2013-03-21 22:02:00,
2013-03-21 17:07:00,67.8,45.1,29.23,West,270,4.0,6.3,44,0.00,,OVC070,0.00,VWS V14.01,2013-03-21 22:07:00,
2013-03-21 17:12:00,67.6,45.0,29.23,WSW,248,5.6,5.6,44,0.00,,OVC070,0.00,VWS V14.01,2013-03-21 22:12:00,
2013-03-21 17:18:00,67.6,45.6,29.23,West,270,6.3,6.3,45,0.00,,OVC070,0.00,VWS V14.01,2013-03-21 22:18:00,
2013-03-21 17:23:00,67.6,45.6,29.23,WSW,248,6.3,6.3,45,0.00,,OVC070,0.00,VWS V14.01,2013-03-21 22:23:00,
2013-03-21 17:28:00,67.5,46.0,29.23,WSW,248,3.8,6.3,46,0.00,,OVC070,0.00,VWS V14.01,2013-03-21 22:28:00,
2013-03-21 17:34:00,67.5,46.5,29.23,WSW,248,6.3,6.3,47,0.00,,OVC070,0.00,VWS V14.01,2013-03-21 22:34:00,
2013-03-21 17:39:00,67.3,46.9,29.23,WSW,248,7.8,7.8,48,0.00,,OVC070,14.76,VWS V14.01,2013-03-21 22:39:00,
2013-03-21 17:44:00,67.3,47.5,29.23,WNW,292,5.6,7.8,49,0.00,,OVC070,14.76,VWS V14.01,2013-03-21 22:44:00,
2013-03-21 17:50:00,67.1,47.9,29.20,West,270,6.5,7.2,50,0.00,,OVC070,14.76,VWS V14.01,2013-03-21 22:50:00,
2013-03-21 17:55:00,66.9,48.7,29.20,WSW,248,9.0,10.1,52,0.00,,OVC070,14.76,VWS V14.01,2013-03-21 22:55:00,
2013-03-21 18:00:00,66.7,49.6,29.20,WSW,248,3.8,6.0,54,0.00,,OVC070,14.76,VWS V14.01,2013-03-21 23:00:00,
2013-03-21 18:06:00,66.6,49.9,29.23,WSW,248,4.7,8.1,55,0.00,,OVC070,14.76,VWS V14.01,2013-03-21 23:06:00,
2013-03-21 18:12:00,66.4,50.2,29.23,WSW,248,8.5,8.7,56,0.00,,OVC070,14.76,VWS V14.01,2013-03-21 23:12:00,
2013-03-21 18:18:00,66.4,50.7,29.23,WSW,248,5.4,10.1,57,0.00,,OVC070,14.76,VWS V14.01,2013-03-21 23:18:00,
2013-03-21 18:23:00,66.2,51.0,29.23,West,270,8.1,8.1,58,0.00,,OVC070,14.76,VWS V14.01,2013-03-21 23:23:00,
2013-03-21 18:30:00,66.2,51.0,29.23,West,270,5.6,6.5,58,0.00,,OVC070,14.76,VWS V14.01,2013-03-21 23:30:00,
2013-03-21 18:36:00,66.0,51.8,29.23,West,270,7.4,7.4,60,0.00,,OVC070,14.76,VWS V14.01,2013-03-21 23:36:00,
2013-03-21 18:41:00,66.0,51.8,29.23,WSW,248,4.9,8.5,60,0.00,,OVC070,14.76,VWS V14.01,2013-03-21 23:41:00,
2013-03-21 18:49:00,65.8,52.0,29.23,WSW,248,6.3,8.1,61,0.00,,OVC070,14.76,VWS V14.01,2013-03-21 23:49:00,
2013-03-21 18:55:00,65.8,52.5,29.26,WNW,292,8.5,9.8,62,0.00,,OVC070,14.76,VWS V14.01,2013-03-21 23:55:00,
2013-03-21 19:01:00,65.7,52.7,29.26,WSW,248,5.4,8.5,63,0.00,,OVC070,14.76,VWS V14.01,2013-03-22 00:01:00,
2013-03-21 19:06:00,65.5,52.6,29.23,WNW,292,9.4,9.4,63,0.00,,OVC070,14.76,VWS V14.01,2013-03-22 00:06:00,
2013-03-21 19:12:00,65.3,52.4,29.23,WSW,248,5.6,7.6,63,0.00,,OVC070,14.76,VWS V14.01,2013-03-22 00:12:00,
2013-03-21 19:17:00,65.1,52.7,29.26,WSW,248,3.6,10.3,64,0.00,,OVC070,14.76,VWS V14.01,2013-03-22 00:17:00,
2013-03-21 19:22:00,64.9,52.5,29.26,SW,225,4.3,8.1,64,0.00,,OVC070,14.76,VWS V14.01,2013-03-22 00:22:00,
2013-03-21 19:27:00,64.8,52.3,29.26,West,270,5.8,9.0,64,0.00,,OVC070,14.76,VWS V14.01,2013-03-22 00:27:00,
2013-03-21 19:33:00,64.8,52.7,29.26,West,270,8.1,8.1,65,0.00,,OVC070,14.76,VWS V14.01,2013-03-22 00:33:00,
2013-03-21 19:38:00,64.6,52.6,29.26,WSW,248,7.2,8.7,65,0.00,,OVC070,14.76,VWS V14.01,2013-03-22 00:38:00,
2013-03-21 19:43:00,64.4,52.4,29.26,WSW,248,9.6,9.6,65,0.00,,OVC070,14.76,VWS V14.01,2013-03-22 00:43:00,
2013-03-21 19:49:00,64.4,52.0,29.26,WSW,248,5.8,6.5,64,0.00,,OVC070,14.76,VWS V14.01,2013-03-22 00:49:00,
2013-03-21 19:54:00,64.4,52.4,29.26,WSW,248,4.3,5.6,65,0.00,,OVC070,14.76,VWS V14.01,2013-03-22 00:54:00,
2013-03-21 20:00:00,64.2,52.2,29.26,WSW,248,5.6,5.8,65,0.00,,OVC065,14.76,VWS V14.01,2013-03-22 01:00:00,
2013-03-21 20:05:00,64.2,52.2,29.26,WSW,248,5.4,6.3,65,0.00,,OVC065,14.76,VWS V14.01,2013-03-22 01:05:00,
2013-03-21 20:11:00,64.0,52.0,29.26,West,270,7.8,7.8,65,0.00,,OVC065,14.76,VWS V14.01,2013-03-22 01:11:00,
2013-03-21 20:17:00,64.0,52.0,29.29,WSW,248,6.3,6.7,65,0.00,,OVC065,14.76,VWS V14.01,2013-03-22 01:17:00,
2013-03-21 20:23:00,64.0,52.0,29.29,WSW,248,4.0,6.3,65,0.00,,OVC065,14.76,VWS V14.01,2013-03-22 01:23:00,
2013-03-21 20:29:00,64.0,52.0,29.29,WSW,248,6.0,8.1,65,0.00,,OVC065,14.76,VWS V14.01,2013-03-22 01:29:00,
2013-03-21 20:34:00,63.9,51.9,29.26,WSW,248,6.7,10.5,65,0.00,,OVC065,14.76,VWS V14.01,2013-03-22 01:34:00,
2013-03-21 20:40:00,64.0,52.0,29.26,West,270,10.3,10.3,65,0.00,,OVC065,14.76,VWS V14.01,2013-03-22 01:40:00,
2013-03-21 20:46:00,63.9,52.3,29.26,West,270,6.3,6.5,66,0.00,,OVC065,14.76,VWS V14.01,2013-03-22 01:46:00,
2013-03-21 20:52:00,63.9,52.3,29.29,WNW,292,3.8,6.5,66,0.00,,OVC065,14.76,VWS V14.01,2013-03-22 01:52:00,
2013-03-21 20:57:00,63.9,52.3,29.29,WNW,292,8.7,8.7,66,0.00,,OVC065,14.76,VWS V14.01,2013-03-22 01:57:00,
2013-03-21 21:02:00,63.9,52.3,29.29,WNW,292,8.5,8.5,66,0.00,,OVC065,14.76,VWS V14.01,2013-03-22 02:02:00,
2013-03-21 21:07:00,63.9,52.7,29.29,WNW,292,6.3,7.8,67,0.00,,OVC065,14.76,VWS V14.01,2013-03-22 02:07:00,
2013-03-21 21:13:00,63.9,52.7,29.29,WSW,248,7.8,7.8,67,0.00,,OVC065,14.76,VWS V14.01,2013-03-22 02:13:00,
2013-03-21 21:18:00,63.9,53.1,29.32,WSW,248,7.4,8.7,68,0.00,,OVC065,14.76,VWS V14.01,2013-03-22 02:18:00,
2013-03-21 21:23:00,63.9,53.1,29.32,WNW,292,7.8,10.1,68,0.00,,OVC065,14.76,VWS V14.01,2013-03-22 02:23:00,
2013-03-21 21:28:00,63.7,53.3,29.32,WSW,248,5.4,8.1,69,0.00,,OVC065,14.76,VWS V14.01,2013-03-22 02:28:00,
2013-03-21 21:33:00,63.7,53.3,29.29,West,270,6.0,6.0,69,0.00,,OVC065,14.76,VWS V14.01,2013-03-22 02:33:00,
2013-03-21 21:39:00,63.5,53.2,29.29,WSW,248,5.6,7.4,69,0.00,,OVC065,14.76,VWS V14.01,2013-03-22 02:39:00,
2013-03-21 21:44:00,63.3,53.4,29.29,WSW,248,6.0,7.4,70,0.00,,OVC065,14.76,VWS V14.01,2013-03-22 02:44:00,
2013-03-21 21:50:00,63.3,53.8,29.32,West,270,5.4,9.6,71,0.00,,OVC065,14.76,VWS V14.01,2013-03-22 02:50:00,
2013-03-21 21:56:00,63.3,53.8,29.32,West,270,5.6,9.6,71,0.00,,OVC065,14.76,VWS V14.01,2013-03-22 02:56:00,
2013-03-21 22:01:00,63.3,54.2,29.32,WSW,248,7.2,7.8,72,0.00,,OVC065,14.76,VWS V14.01,2013-03-22 03:01:00,
2013-03-21 22:07:00,63.3,53.8,29.29,WSW,248,6.5,6.5,71,0.00,,OVC065,14.76,VWS V14.01,2013-03-22 03:07:00,
2013-03-21 22:12:00,63.3,54.2,29.29,WSW,248,6.0,6.3,72,0.00,,OVC065,14.76,VWS V14.01,2013-03-22 03:12:00,
2013-03-21 22:18:00,63.3,54.2,29.32,WSW,248,5.6,8.1,72,0.00,,OVC065,14.76,VWS V14.01,2013-03-22 03:18:00,
2013-03-21 22:24:00,63.3,54.2,29.32,WSW,248,7.8,10.5,72,0.00,,OVC065,14.76,VWS V14.01,2013-03-22 03:24:00,
2013-03-21 22:29:00,63.3,54.2,29.32,West,270,6.0,8.5,72,0.00,,OVC065,14.76,VWS V14.01,2013-03-22 03:29:00,
2013-03-21 22:35:00,63.3,54.5,29.29,WNW,292,5.4,12.3,73,0.00,,OVC065,14.76,VWS V14.01,2013-03-22 03:35:00,
2013-03-21 22:40:00,63.3,54.5,29.29,WSW,248,5.4,8.5,73,0.00,,OVC065,14.76,VWS V14.01,2013-03-22 03:40:00,
2013-03-21 22:45:00,63.3,54.5,29.29,WSW,248,5.8,9.8,73,0.00,,OVC065,14.76,VWS V14.01,2013-03-22 03:45:00,
2013-03-21 22:51:00,63.1,54.3,29.32,WSW,248,3.6,5.8,73,0.00,,OVC065,14.76,VWS V14.01,2013-03-22 03:51:00,
2013-03-21 22:57:00,63.1,54.3,29.32,WSW,248,6.0,7.2,73,0.00,,OVC065,14.76,VWS V14.01,2013-03-22 03:57:00,
2013-03-21 23:00:00,63.1,54.3,29.32,West,270,5.4,6.5,73,0.00,,OVC065,14.76,VWS V14.01,2013-03-22 04:00:00,
2013-03-21 23:02:00,63.1,54.3,29.32,WSW,248,5.8,6.3,73,0.00,,OVC065,14.76,VWS V14.01,2013-03-22 04:02:00,
2013-03-21 23:03:00,63.1,54.3,29.35,WSW,248,6.0,6.0,73,0.00,,OVC065,14.76,VWS V14.01,2013-03-22 04:03:00,
2013-03-21 23:09:00,63.1,54.3,29.35,WSW,248,6.3,6.7,73,0.00,,OVC065,14.76,VWS V14.01,2013-03-22 04:09:00,
2013-03-21 23:14:00,63.0,54.2,29.35,WSW,248,5.6,7.2,73,0.00,,OVC065,14.76,VWS V14.01,2013-03-22 04:14:00,
2013-03-21 23:20:00,63.0,54.5,29.32,WNW,292,6.0,8.5,74,0.00,,OVC065,14.76,VWS V14.01,2013-03-22 04:20:00,
2013-03-21 23:25:00,63.0,54.5,29.32,WSW,248,3.8,6.0,74,0.00,,OVC065,14.76,VWS V14.01,2013-03-22 04:25:00,
2013-03-21 23:31:00,63.0,54.5,29.32,WSW,248,4.9,6.0,74,0.00,,OVC065,14.76,VWS V14.01,2013-03-22 04:31:00,
2013-03-21 23:36:00,63.0,54.5,29.29,WSW,248,6.5,7.6,74,0.00,,OVC065,14.76,VWS V14.01,2013-03-22 04:36:00,
2013-03-21 23:42:00,63.0,54.9,29.29,WSW,248,6.5,8.1,75,0.00,,OVC065,14.76,VWS V14.01,2013-03-22 04:42:00,
2013-03-21 23:48:00,63.0,54.9,29.29,WSW,248,5.6,8.1,75,0.00,,OVC065,14.76,VWS V14.01,2013-03-22 04:48:00,
2013-03-21 23:53:00,63.0,55.3,29.29,WSW,248,4.9,7.6,76,0.00,,OVC065,14.76,VWS V14.01,2013-03-22 04:53:00,